sensor_id;sensor_type;location;lat;lon;timestamp;P1;durP1;ratioP1;P2;durP2;ratioP2
51499;SDS011;39101;53.478;6.158;2022-08-21T00:01:09;11.85;;;5.90;;
51499;SDS011;39101;53.478;6.158;2022-08-21T00:03:39;11.30;;;5.68;;
51499;SDS011;39101;53.478;6.158;2022-08-21T00:06:07;11.55;;;5.85;;
51499;SDS011;39101;53.478;6.158;2022-08-21T00:08:33;12.00;;;5.10;;
51499;SDS011;39101;53.478;6.158;2022-08-21T00:10:59;14.68;;;6.82;;
51499;SDS011;39101;53.478;6.158;2022-08-21T00:13:25;10.60;;;4.93;;
51499;SDS011;39101;53.478;6.158;2022-08-21T00:15:51;13.57;;;5.57;;
51499;SDS011;39101;53.478;6.158;2022-08-21T00:18:17;10.57;;;5.32;;
51499;SDS011;39101;53.478;6.158;2022-08-21T00:20:44;10.18;;;5.30;;
51499;SDS011;39101;53.478;6.158;2022-08-21T00:23:11;10.43;;;5.32;;
51499;SDS011;39101;53.478;6.158;2022-08-21T00:25:38;10.27;;;6.05;;
51499;SDS011;39101;53.478;6.158;2022-08-21T00:28:06;12.63;;;6.18;;
51499;SDS011;39101;53.478;6.158;2022-08-21T00:30:32;10.82;;;6.50;;
51499;SDS011;39101;53.478;6.158;2022-08-21T00:32:58;13.75;;;6.68;;
51499;SDS011;39101;53.478;6.158;2022-08-21T00:35:31;13.00;;;6.20;;
51499;SDS011;39101;53.478;6.158;2022-08-21T00:37:59;10.00;;;5.63;;
51499;SDS011;39101;53.478;6.158;2022-08-21T00:40:33;10.82;;;5.72;;
51499;SDS011;39101;53.478;6.158;2022-08-21T00:43:05;11.00;;;6.15;;
51499;SDS011;39101;53.478;6.158;2022-08-21T00:45:33;11.40;;;5.57;;
51499;SDS011;39101;53.478;6.158;2022-08-21T00:47:59;14.85;;;6.53;;
51499;SDS011;39101;53.478;6.158;2022-08-21T00:50:29;13.73;;;7.13;;
51499;SDS011;39101;53.478;6.158;2022-08-21T00:52:57;15.32;;;5.80;;
51499;SDS011;39101;53.478;6.158;2022-08-21T00:55:25;13.25;;;5.63;;
51499;SDS011;39101;53.478;6.158;2022-08-21T00:57:52;11.68;;;6.70;;
51499;SDS011;39101;53.478;6.158;2022-08-21T01:00:25;13.93;;;6.18;;
51499;SDS011;39101;53.478;6.158;2022-08-21T01:02:55;18.15;;;7.15;;
51499;SDS011;39101;53.478;6.158;2022-08-21T01:05:24;12.95;;;5.53;;
51499;SDS011;39101;53.478;6.158;2022-08-21T01:07:53;11.27;;;5.47;;
51499;SDS011;39101;53.478;6.158;2022-08-21T01:12:50;12.57;;;6.40;;
51499;SDS011;39101;53.478;6.158;2022-08-21T01:15:17;9.43;;;5.55;;
51499;SDS011;39101;53.478;6.158;2022-08-21T01:17:44;12.07;;;5.75;;
51499;SDS011;39101;53.478;6.158;2022-08-21T01:20:10;12.63;;;6.10;;
51499;SDS011;39101;53.478;6.158;2022-08-21T01:22:39;16.58;;;7.03;;
51499;SDS011;39101;53.478;6.158;2022-08-21T01:25:06;10.82;;;6.30;;
51499;SDS011;39101;53.478;6.158;2022-08-21T01:27:33;12.38;;;6.13;;
51499;SDS011;39101;53.478;6.158;2022-08-21T01:30:02;11.52;;;5.82;;
51499;SDS011;39101;53.478;6.158;2022-08-21T01:32:50;13.15;;;6.55;;
51499;SDS011;39101;53.478;6.158;2022-08-21T01:35:18;14.13;;;6.25;;
51499;SDS011;39101;53.478;6.158;2022-08-21T01:38:06;14.88;;;6.47;;
51499;SDS011;39101;53.478;6.158;2022-08-21T01:40:32;11.68;;;6.03;;
51499;SDS011;39101;53.478;6.158;2022-08-21T01:43:02;10.88;;;6.00;;
51499;SDS011;39101;53.478;6.158;2022-08-21T01:45:30;13.07;;;6.07;;
51499;SDS011;39101;53.478;6.158;2022-08-21T01:47:59;10.60;;;7.07;;
51499;SDS011;39101;53.478;6.158;2022-08-21T01:50:27;11.02;;;6.68;;
51499;SDS011;39101;53.478;6.158;2022-08-21T01:52:53;11.40;;;6.25;;
51499;SDS011;39101;53.478;6.158;2022-08-21T01:55:19;14.18;;;6.53;;
51499;SDS011;39101;53.478;6.158;2022-08-21T01:57:48;12.98;;;7.22;;
51499;SDS011;39101;53.478;6.158;2022-08-21T02:00:16;15.43;;;6.82;;
51499;SDS011;39101;53.478;6.158;2022-08-21T02:02:44;14.67;;;6.63;;
51499;SDS011;39101;53.478;6.158;2022-08-21T02:05:11;13.75;;;7.30;;
51499;SDS011;39101;53.478;6.158;2022-08-21T02:07:42;13.70;;;6.93;;
51499;SDS011;39101;53.478;6.158;2022-08-21T02:10:27;13.35;;;6.88;;
51499;SDS011;39101;53.478;6.158;2022-08-21T02:12:56;12.30;;;6.65;;
51499;SDS011;39101;53.478;6.158;2022-08-21T02:15:42;11.00;;;6.18;;
51499;SDS011;39101;53.478;6.158;2022-08-21T02:18:08;15.32;;;6.80;;
51499;SDS011;39101;53.478;6.158;2022-08-21T02:20:36;12.77;;;6.40;;
51499;SDS011;39101;53.478;6.158;2022-08-21T02:23:09;14.43;;;7.00;;
51499;SDS011;39101;53.478;6.158;2022-08-21T02:25:39;13.50;;;6.32;;
51499;SDS011;39101;53.478;6.158;2022-08-21T02:28:05;12.18;;;6.65;;
51499;SDS011;39101;53.478;6.158;2022-08-21T02:30:50;10.20;;;6.70;;
51499;SDS011;39101;53.478;6.158;2022-08-21T02:33:17;14.05;;;5.95;;
51499;SDS011;39101;53.478;6.158;2022-08-21T02:35:44;11.40;;;6.03;;
51499;SDS011;39101;53.478;6.158;2022-08-21T02:38:13;12.43;;;7.07;;
51499;SDS011;39101;53.478;6.158;2022-08-21T02:40:42;12.70;;;6.35;;
51499;SDS011;39101;53.478;6.158;2022-08-21T02:43:11;15.05;;;7.60;;
51499;SDS011;39101;53.478;6.158;2022-08-21T02:45:39;14.85;;;6.10;;
51499;SDS011;39101;53.478;6.158;2022-08-21T02:48:12;11.57;;;7.00;;
51499;SDS011;39101;53.478;6.158;2022-08-21T02:50:41;9.82;;;6.20;;
51499;SDS011;39101;53.478;6.158;2022-08-21T02:53:15;11.45;;;6.20;;
51499;SDS011;39101;53.478;6.158;2022-08-21T02:55:42;13.20;;;6.25;;
51499;SDS011;39101;53.478;6.158;2022-08-21T02:58:10;13.68;;;6.95;;
51499;SDS011;39101;53.478;6.158;2022-08-21T03:00:39;10.75;;;6.57;;
51499;SDS011;39101;53.478;6.158;2022-08-21T03:03:05;12.88;;;6.72;;
51499;SDS011;39101;53.478;6.158;2022-08-21T03:05:31;15.80;;;7.47;;
51499;SDS011;39101;53.478;6.158;2022-08-21T03:07:58;14.20;;;6.93;;
51499;SDS011;39101;53.478;6.158;2022-08-21T03:10:25;15.48;;;7.15;;
51499;SDS011;39101;53.478;6.158;2022-08-21T03:12:52;13.55;;;7.43;;
51499;SDS011;39101;53.478;6.158;2022-08-21T03:15:19;13.50;;;7.35;;
51499;SDS011;39101;53.478;6.158;2022-08-21T03:17:46;10.18;;;6.78;;
51499;SDS011;39101;53.478;6.158;2022-08-21T03:20:14;13.80;;;7.60;;
51499;SDS011;39101;53.478;6.158;2022-08-21T03:22:43;12.77;;;6.78;;
51499;SDS011;39101;53.478;6.158;2022-08-21T03:25:12;15.70;;;7.95;;
51499;SDS011;39101;53.478;6.158;2022-08-21T03:27:37;14.13;;;6.95;;
51499;SDS011;39101;53.478;6.158;2022-08-21T03:30:04;11.93;;;7.00;;
51499;SDS011;39101;53.478;6.158;2022-08-21T03:32:36;15.07;;;6.82;;
51499;SDS011;39101;53.478;6.158;2022-08-21T03:35:01;13.52;;;6.07;;
51499;SDS011;39101;53.478;6.158;2022-08-21T03:37:28;14.07;;;7.38;;
51499;SDS011;39101;53.478;6.158;2022-08-21T03:39:54;13.70;;;6.68;;
51499;SDS011;39101;53.478;6.158;2022-08-21T03:42:20;11.23;;;6.60;;
51499;SDS011;39101;53.478;6.158;2022-08-21T03:44:46;13.80;;;6.55;;
51499;SDS011;39101;53.478;6.158;2022-08-21T03:47:14;14.55;;;7.50;;
51499;SDS011;39101;53.478;6.158;2022-08-21T03:49:39;11.13;;;7.32;;
51499;SDS011;39101;53.478;6.158;2022-08-21T03:52:06;10.07;;;7.07;;
51499;SDS011;39101;53.478;6.158;2022-08-21T03:54:32;11.63;;;7.32;;
51499;SDS011;39101;53.478;6.158;2022-08-21T03:56:58;11.63;;;7.30;;
51499;SDS011;39101;53.478;6.158;2022-08-21T03:59:25;13.40;;;7.05;;
51499;SDS011;39101;53.478;6.158;2022-08-21T04:01:53;17.33;;;9.55;;
51499;SDS011;39101;53.478;6.158;2022-08-21T04:04:21;13.25;;;6.93;;
51499;SDS011;39101;53.478;6.158;2022-08-21T04:06:46;11.18;;;6.95;;
51499;SDS011;39101;53.478;6.158;2022-08-21T04:09:12;13.88;;;7.45;;
51499;SDS011;39101;53.478;6.158;2022-08-21T04:11:38;17.95;;;8.15;;
51499;SDS011;39101;53.478;6.158;2022-08-21T04:14:03;12.10;;;7.22;;
51499;SDS011;39101;53.478;6.158;2022-08-21T04:16:29;12.10;;;7.40;;
51499;SDS011;39101;53.478;6.158;2022-08-21T04:18:56;20.65;;;7.82;;
51499;SDS011;39101;53.478;6.158;2022-08-21T04:21:22;10.90;;;7.35;;
51499;SDS011;39101;53.478;6.158;2022-08-21T04:23:48;14.82;;;6.88;;
51499;SDS011;39101;53.478;6.158;2022-08-21T04:26:16;10.30;;;6.85;;
51499;SDS011;39101;53.478;6.158;2022-08-21T04:28:42;15.40;;;7.45;;
51499;SDS011;39101;53.478;6.158;2022-08-21T04:31:08;11.75;;;7.55;;
51499;SDS011;39101;53.478;6.158;2022-08-21T04:33:34;15.55;;;7.82;;
51499;SDS011;39101;53.478;6.158;2022-08-21T04:36:00;14.07;;;8.23;;
51499;SDS011;39101;53.478;6.158;2022-08-21T04:38:26;12.05;;;8.18;;
51499;SDS011;39101;53.478;6.158;2022-08-21T04:40:52;13.07;;;7.25;;
51499;SDS011;39101;53.478;6.158;2022-08-21T04:43:18;12.90;;;7.47;;
51499;SDS011;39101;53.478;6.158;2022-08-21T04:48:15;12.65;;;6.55;;
51499;SDS011;39101;53.478;6.158;2022-08-21T04:53:18;11.77;;;7.13;;
51499;SDS011;39101;53.478;6.158;2022-08-21T04:55:49;13.07;;;7.70;;
51499;SDS011;39101;53.478;6.158;2022-08-21T04:58:19;13.90;;;7.13;;
51499;SDS011;39101;53.478;6.158;2022-08-21T05:00:49;10.73;;;7.15;;
51499;SDS011;39101;53.478;6.158;2022-08-21T05:03:20;13.88;;;7.82;;
51499;SDS011;39101;53.478;6.158;2022-08-21T05:05:46;13.10;;;7.32;;
51499;SDS011;39101;53.478;6.158;2022-08-21T05:08:14;14.57;;;7.93;;
51499;SDS011;39101;53.478;6.158;2022-08-21T05:10:42;12.32;;;7.13;;
51499;SDS011;39101;53.478;6.158;2022-08-21T05:13:09;15.55;;;7.82;;
51499;SDS011;39101;53.478;6.158;2022-08-21T05:15:37;14.73;;;7.40;;
51499;SDS011;39101;53.478;6.158;2022-08-21T05:18:03;13.05;;;6.88;;
51499;SDS011;39101;53.478;6.158;2022-08-21T05:20:31;14.23;;;7.68;;
51499;SDS011;39101;53.478;6.158;2022-08-21T05:22:59;14.20;;;6.93;;
51499;SDS011;39101;53.478;6.158;2022-08-21T05:25:25;11.88;;;7.57;;
51499;SDS011;39101;53.478;6.158;2022-08-21T05:27:51;13.38;;;7.22;;
51499;SDS011;39101;53.478;6.158;2022-08-21T05:30:23;9.90;;;7.47;;
51499;SDS011;39101;53.478;6.158;2022-08-21T05:32:48;14.07;;;6.88;;
51499;SDS011;39101;53.478;6.158;2022-08-21T05:35:14;11.45;;;7.15;;
51499;SDS011;39101;53.478;6.158;2022-08-21T05:37:40;13.23;;;7.47;;
51499;SDS011;39101;53.478;6.158;2022-08-21T05:40:06;11.43;;;7.45;;
51499;SDS011;39101;53.478;6.158;2022-08-21T05:42:33;11.55;;;7.68;;
51499;SDS011;39101;53.478;6.158;2022-08-21T05:44:58;13.02;;;7.47;;
51499;SDS011;39101;53.478;6.158;2022-08-21T05:47:27;13.10;;;6.85;;
51499;SDS011;39101;53.478;6.158;2022-08-21T05:49:53;19.95;;;7.85;;
51499;SDS011;39101;53.478;6.158;2022-08-21T05:52:21;12.45;;;7.22;;
51499;SDS011;39101;53.478;6.158;2022-08-21T05:54:47;11.63;;;6.90;;
51499;SDS011;39101;53.478;6.158;2022-08-21T05:57:13;12.27;;;8.07;;
51499;SDS011;39101;53.478;6.158;2022-08-21T05:59:39;15.45;;;7.20;;
51499;SDS011;39101;53.478;6.158;2022-08-21T06:02:05;10.82;;;6.82;;
51499;SDS011;39101;53.478;6.158;2022-08-21T06:04:39;13.90;;;7.05;;
51499;SDS011;39101;53.478;6.158;2022-08-21T06:07:07;10.15;;;6.00;;
51499;SDS011;39101;53.478;6.158;2022-08-21T06:09:33;12.50;;;7.22;;
51499;SDS011;39101;53.478;6.158;2022-08-21T06:12:03;13.63;;;6.88;;
51499;SDS011;39101;53.478;6.158;2022-08-21T06:14:34;12.40;;;7.05;;
51499;SDS011;39101;53.478;6.158;2022-08-21T06:17:04;12.70;;;6.45;;
51499;SDS011;39101;53.478;6.158;2022-08-21T06:19:54;14.52;;;6.88;;
51499;SDS011;39101;53.478;6.158;2022-08-21T06:22:20;12.70;;;6.72;;
51499;SDS011;39101;53.478;6.158;2022-08-21T06:24:46;15.43;;;6.43;;
51499;SDS011;39101;53.478;6.158;2022-08-21T06:27:13;11.13;;;6.00;;
51499;SDS011;39101;53.478;6.158;2022-08-21T06:29:40;10.65;;;5.53;;
51499;SDS011;39101;53.478;6.158;2022-08-21T06:32:06;15.88;;;6.30;;
51499;SDS011;39101;53.478;6.158;2022-08-21T06:34:36;12.17;;;6.33;;
51499;SDS011;39101;53.478;6.158;2022-08-21T06:37:07;13.48;;;6.50;;
51499;SDS011;39101;53.478;6.158;2022-08-21T06:39:35;13.73;;;6.95;;
51499;SDS011;39101;53.478;6.158;2022-08-21T06:42:01;8.93;;;5.72;;
51499;SDS011;39101;53.478;6.158;2022-08-21T06:44:26;13.80;;;5.93;;
51499;SDS011;39101;53.478;6.158;2022-08-21T06:46:53;11.80;;;5.82;;
51499;SDS011;39101;53.478;6.158;2022-08-21T06:49:19;12.00;;;5.35;;
51499;SDS011;39101;53.478;6.158;2022-08-21T06:51:45;10.30;;;6.50;;
51499;SDS011;39101;53.478;6.158;2022-08-21T06:54:10;15.40;;;5.70;;
51499;SDS011;39101;53.478;6.158;2022-08-21T06:56:38;15.00;;;5.60;;
51499;SDS011;39101;53.478;6.158;2022-08-21T06:59:04;14.05;;;5.30;;
51499;SDS011;39101;53.478;6.158;2022-08-21T07:01:31;10.88;;;5.38;;
51499;SDS011;39101;53.478;6.158;2022-08-21T07:03:57;14.07;;;5.20;;
51499;SDS011;39101;53.478;6.158;2022-08-21T07:06:23;10.57;;;4.80;;
51499;SDS011;39101;53.478;6.158;2022-08-21T07:08:50;14.52;;;5.20;;
51499;SDS011;39101;53.478;6.158;2022-08-21T07:11:20;13.10;;;5.05;;
51499;SDS011;39101;53.478;6.158;2022-08-21T07:13:48;11.15;;;5.07;;
51499;SDS011;39101;53.478;6.158;2022-08-21T07:16:14;13.05;;;6.25;;
51499;SDS011;39101;53.478;6.158;2022-08-21T07:18:41;14.68;;;5.70;;
51499;SDS011;39101;53.478;6.158;2022-08-21T07:21:07;15.65;;;5.20;;
51499;SDS011;39101;53.478;6.158;2022-08-21T07:23:35;14.95;;;5.25;;
51499;SDS011;39101;53.478;6.158;2022-08-21T07:26:05;13.82;;;4.75;;
51499;SDS011;39101;53.478;6.158;2022-08-21T07:28:33;15.65;;;5.22;;
51499;SDS011;39101;53.478;6.158;2022-08-21T07:31:01;16.80;;;5.47;;
51499;SDS011;39101;53.478;6.158;2022-08-21T07:33:28;16.35;;;5.78;;
51499;SDS011;39101;53.478;6.158;2022-08-21T07:35:56;12.25;;;5.55;;
51499;SDS011;39101;53.478;6.158;2022-08-21T07:38:24;14.98;;;5.25;;
51499;SDS011;39101;53.478;6.158;2022-08-21T07:40:51;12.35;;;4.97;;
51499;SDS011;39101;53.478;6.158;2022-08-21T07:43:20;15.43;;;5.00;;
51499;SDS011;39101;53.478;6.158;2022-08-21T07:45:46;17.08;;;5.68;;
51499;SDS011;39101;53.478;6.158;2022-08-21T07:48:14;13.50;;;5.45;;
51499;SDS011;39101;53.478;6.158;2022-08-21T07:50:41;18.65;;;5.40;;
51499;SDS011;39101;53.478;6.158;2022-08-21T07:53:07;14.65;;;5.47;;
51499;SDS011;39101;53.478;6.158;2022-08-21T07:55:35;12.05;;;4.72;;
51499;SDS011;39101;53.478;6.158;2022-08-21T07:58:02;14.77;;;5.13;;
51499;SDS011;39101;53.478;6.158;2022-08-21T08:00:29;11.07;;;4.75;;
51499;SDS011;39101;53.478;6.158;2022-08-21T08:02:56;14.15;;;4.85;;
51499;SDS011;39101;53.478;6.158;2022-08-21T08:05:27;15.15;;;5.38;;
51499;SDS011;39101;53.478;6.158;2022-08-21T08:07:57;14.38;;;5.38;;
51499;SDS011;39101;53.478;6.158;2022-08-21T08:10:27;12.45;;;4.80;;
51499;SDS011;39101;53.478;6.158;2022-08-21T08:12:53;12.40;;;5.28;;
51499;SDS011;39101;53.478;6.158;2022-08-21T08:15:22;16.23;;;5.18;;
51499;SDS011;39101;53.478;6.158;2022-08-21T08:17:49;14.65;;;5.55;;
51499;SDS011;39101;53.478;6.158;2022-08-21T08:20:15;15.80;;;6.07;;
51499;SDS011;39101;53.478;6.158;2022-08-21T08:22:43;14.05;;;5.45;;
51499;SDS011;39101;53.478;6.158;2022-08-21T08:25:10;17.88;;;5.93;;
51499;SDS011;39101;53.478;6.158;2022-08-21T08:27:39;13.75;;;4.82;;
51499;SDS011;39101;53.478;6.158;2022-08-21T08:30:07;13.18;;;4.90;;
51499;SDS011;39101;53.478;6.158;2022-08-21T08:32:35;16.98;;;5.68;;
51499;SDS011;39101;53.478;6.158;2022-08-21T08:35:04;16.20;;;6.43;;
51499;SDS011;39101;53.478;6.158;2022-08-21T08:37:33;14.73;;;5.80;;
51499;SDS011;39101;53.478;6.158;2022-08-21T08:40:03;12.82;;;5.22;;
51499;SDS011;39101;53.478;6.158;2022-08-21T08:42:33;12.70;;;4.70;;
51499;SDS011;39101;53.478;6.158;2022-08-21T08:45:12;14.90;;;5.32;;
51499;SDS011;39101;53.478;6.158;2022-08-21T08:47:46;10.88;;;4.30;;
51499;SDS011;39101;53.478;6.158;2022-08-21T08:50:18;11.95;;;3.78;;
51499;SDS011;39101;53.478;6.158;2022-08-21T08:55:43;16.25;;;4.10;;
51499;SDS011;39101;53.478;6.158;2022-08-21T08:58:12;11.23;;;3.33;;
51499;SDS011;39101;53.478;6.158;2022-08-21T09:00:46;12.45;;;3.85;;
51499;SDS011;39101;53.478;6.158;2022-08-21T09:03:14;12.85;;;4.38;;
51499;SDS011;39101;53.478;6.158;2022-08-21T09:05:46;13.88;;;4.25;;
51499;SDS011;39101;53.478;6.158;2022-08-21T09:11:10;12.73;;;3.60;;
51499;SDS011;39101;53.478;6.158;2022-08-21T09:14:41;11.13;;;2.80;;
51499;SDS011;39101;53.478;6.158;2022-08-21T09:17:08;9.70;;;3.35;;
51499;SDS011;39101;53.478;6.158;2022-08-21T09:25:46;8.80;;;3.22;;
51499;SDS011;39101;53.478;6.158;2022-08-21T09:28:16;13.23;;;3.97;;
51499;SDS011;39101;53.478;6.158;2022-08-21T09:30:42;8.70;;;3.08;;
51499;SDS011;39101;53.478;6.158;2022-08-21T09:33:09;10.05;;;3.88;;
51499;SDS011;39101;53.478;6.158;2022-08-21T09:35:47;10.35;;;3.70;;
51499;SDS011;39101;53.478;6.158;2022-08-21T09:38:23;10.68;;;3.78;;
51499;SDS011;39101;53.478;6.158;2022-08-21T09:40:59;12.65;;;3.30;;
51499;SDS011;39101;53.478;6.158;2022-08-21T09:43:28;6.97;;;2.70;;
51499;SDS011;39101;53.478;6.158;2022-08-21T09:46:25;9.57;;;2.75;;
51499;SDS011;39101;53.478;6.158;2022-08-21T09:48:53;6.30;;;2.35;;
51499;SDS011;39101;53.478;6.158;2022-08-21T09:51:28;10.68;;;3.35;;
51499;SDS011;39101;53.478;6.158;2022-08-21T09:56:36;10.55;;;3.20;;
51499;SDS011;39101;53.478;6.158;2022-08-21T09:59:32;11.60;;;3.00;;
51499;SDS011;39101;53.478;6.158;2022-08-21T10:02:23;11.65;;;4.00;;
51499;SDS011;39101;53.478;6.158;2022-08-21T10:04:50;10.43;;;3.15;;
51499;SDS011;39101;53.478;6.158;2022-08-21T10:07:24;13.93;;;3.03;;
51499;SDS011;39101;53.478;6.158;2022-08-21T10:12:30;6.78;;;2.28;;
51499;SDS011;39101;53.478;6.158;2022-08-21T10:15:20;8.07;;;2.78;;
51499;SDS011;39101;53.478;6.158;2022-08-21T10:21:41;10.93;;;3.47;;
51499;SDS011;39101;53.478;6.158;2022-08-21T10:29:11;12.77;;;3.92;;
51499;SDS011;39101;53.478;6.158;2022-08-21T10:37:46;9.27;;;2.75;;
51499;SDS011;39101;53.478;6.158;2022-08-21T10:40:42;8.30;;;2.33;;
51499;SDS011;39101;53.478;6.158;2022-08-21T10:43:33;11.18;;;2.50;;
51499;SDS011;39101;53.478;6.158;2022-08-21T10:48:54;12.18;;;3.72;;
51499;SDS011;39101;53.478;6.158;2022-08-21T10:52:09;11.30;;;2.67;;
51499;SDS011;39101;53.478;6.158;2022-08-21T10:57:00;9.25;;;2.63;;
51499;SDS011;39101;53.478;6.158;2022-08-21T10:59:32;7.32;;;2.22;;
51499;SDS011;39101;53.478;6.158;2022-08-21T11:02:17;7.75;;;2.60;;
51499;SDS011;39101;53.478;6.158;2022-08-21T11:04:57;7.47;;;2.60;;
51499;SDS011;39101;53.478;6.158;2022-08-21T11:10:15;7.38;;;2.13;;
51499;SDS011;39101;53.478;6.158;2022-08-21T11:12:56;8.25;;;2.40;;
51499;SDS011;39101;53.478;6.158;2022-08-21T11:15:41;10.70;;;2.40;;
51499;SDS011;39101;53.478;6.158;2022-08-21T11:18:29;9.32;;;2.30;;
51499;SDS011;39101;53.478;6.158;2022-08-21T11:24:15;5.55;;;2.28;;
51499;SDS011;39101;53.478;6.158;2022-08-21T11:26:49;6.85;;;2.20;;
51499;SDS011;39101;53.478;6.158;2022-08-21T11:29:38;7.85;;;2.33;;
51499;SDS011;39101;53.478;6.158;2022-08-21T11:35:04;12.50;;;2.88;;
51499;SDS011;39101;53.478;6.158;2022-08-21T11:42:50;5.65;;;2.47;;
51499;SDS011;39101;53.478;6.158;2022-08-21T11:45:32;11.32;;;2.10;;
51499;SDS011;39101;53.478;6.158;2022-08-21T11:48:29;8.55;;;2.10;;
51499;SDS011;39101;53.478;6.158;2022-08-21T11:51:07;8.70;;;2.20;;
51499;SDS011;39101;53.478;6.158;2022-08-21T11:53:44;8.10;;;2.33;;
51499;SDS011;39101;53.478;6.158;2022-08-21T11:56:18;9.77;;;2.00;;
51499;SDS011;39101;53.478;6.158;2022-08-21T11:58:53;7.90;;;2.30;;
51499;SDS011;39101;53.478;6.158;2022-08-21T12:01:25;7.22;;;2.13;;
51499;SDS011;39101;53.478;6.158;2022-08-21T12:07:14;7.15;;;2.30;;
51499;SDS011;39101;53.478;6.158;2022-08-21T12:09:52;11.40;;;3.58;;
51499;SDS011;39101;53.478;6.158;2022-08-21T12:17:53;8.40;;;2.30;;
51499;SDS011;39101;53.478;6.158;2022-08-21T12:20:39;8.70;;;2.08;;
51499;SDS011;39101;53.478;6.158;2022-08-21T12:25:38;5.85;;;2.20;;
51499;SDS011;39101;53.478;6.158;2022-08-21T12:28:35;7.78;;;1.92;;
51499;SDS011;39101;53.478;6.158;2022-08-21T12:31:04;11.77;;;2.03;;
51499;SDS011;39101;53.478;6.158;2022-08-21T12:33:41;6.95;;;2.05;;
51499;SDS011;39101;53.478;6.158;2022-08-21T12:36:17;6.55;;;1.73;;
51499;SDS011;39101;53.478;6.158;2022-08-21T12:41:30;7.25;;;2.40;;
51499;SDS011;39101;53.478;6.158;2022-08-21T12:44:28;9.25;;;2.83;;
51499;SDS011;39101;53.478;6.158;2022-08-21T12:47:11;7.13;;;2.40;;
51499;SDS011;39101;53.478;6.158;2022-08-21T12:49:51;7.35;;;2.47;;
51499;SDS011;39101;53.478;6.158;2022-08-21T12:52:35;8.43;;;2.22;;
51499;SDS011;39101;53.478;6.158;2022-08-21T12:55:07;6.70;;;1.88;;
51499;SDS011;39101;53.478;6.158;2022-08-21T12:57:52;9.88;;;2.28;;
51499;SDS011;39101;53.478;6.158;2022-08-21T13:00:21;9.68;;;2.17;;
51499;SDS011;39101;53.478;6.158;2022-08-21T13:02:49;9.18;;;2.05;;
51499;SDS011;39101;53.478;6.158;2022-08-21T13:05:19;9.38;;;2.00;;
51499;SDS011;39101;53.478;6.158;2022-08-21T13:08:05;8.13;;;2.38;;
51499;SDS011;39101;53.478;6.158;2022-08-21T13:10:35;6.65;;;1.70;;
51499;SDS011;39101;53.478;6.158;2022-08-21T13:13:03;8.13;;;2.45;;
51499;SDS011;39101;53.478;6.158;2022-08-21T13:15:33;11.77;;;2.60;;
51499;SDS011;39101;53.478;6.158;2022-08-21T13:18:03;7.65;;;2.10;;
51499;SDS011;39101;53.478;6.158;2022-08-21T13:20:32;9.07;;;2.03;;
51499;SDS011;39101;53.478;6.158;2022-08-21T13:23:05;6.43;;;2.40;;
51499;SDS011;39101;53.478;6.158;2022-08-21T13:25:48;6.28;;;2.10;;
51499;SDS011;39101;53.478;6.158;2022-08-21T13:28:14;12.07;;;3.38;;
51499;SDS011;39101;53.478;6.158;2022-08-21T13:30:51;11.57;;;2.40;;
51499;SDS011;39101;53.478;6.158;2022-08-21T13:33:21;10.35;;;2.85;;
51499;SDS011;39101;53.478;6.158;2022-08-21T13:36:24;11.40;;;3.03;;
51499;SDS011;39101;53.478;6.158;2022-08-21T13:38:46;7.95;;;2.72;;
51499;SDS011;39101;53.478;6.158;2022-08-21T13:44:03;9.48;;;2.58;;
51499;SDS011;39101;53.478;6.158;2022-08-21T13:46:44;9.05;;;2.67;;
51499;SDS011;39101;53.478;6.158;2022-08-21T13:49:10;8.45;;;2.60;;
51499;SDS011;39101;53.478;6.158;2022-08-21T13:51:40;8.85;;;2.33;;
51499;SDS011;39101;53.478;6.158;2022-08-21T13:54:18;11.02;;;3.03;;
51499;SDS011;39101;53.478;6.158;2022-08-21T13:56:53;12.43;;;2.55;;
51499;SDS011;39101;53.478;6.158;2022-08-21T14:04:35;8.10;;;2.42;;
51499;SDS011;39101;53.478;6.158;2022-08-21T14:07:20;14.25;;;2.58;;
51499;SDS011;39101;53.478;6.158;2022-08-21T14:10:03;9.15;;;3.00;;
51499;SDS011;39101;53.478;6.158;2022-08-21T14:13:17;8.40;;;2.63;;
51499;SDS011;39101;53.478;6.158;2022-08-21T14:15:31;9.15;;;2.50;;
51499;SDS011;39101;53.478;6.158;2022-08-21T14:18:15;6.68;;;2.08;;
51499;SDS011;39101;53.478;6.158;2022-08-21T14:20:43;11.88;;;2.85;;
51499;SDS011;39101;53.478;6.158;2022-08-21T14:23:23;12.00;;;2.60;;
51499;SDS011;39101;53.478;6.158;2022-08-21T14:25:50;10.05;;;2.47;;
51499;SDS011;39101;53.478;6.158;2022-08-21T14:28:26;11.27;;;2.42;;
51499;SDS011;39101;53.478;6.158;2022-08-21T14:30:57;10.80;;;2.40;;
51499;SDS011;39101;53.478;6.158;2022-08-21T14:33:45;8.77;;;2.53;;
51499;SDS011;39101;53.478;6.158;2022-08-21T14:36:12;8.85;;;2.13;;
51499;SDS011;39101;53.478;6.158;2022-08-21T14:38:39;8.48;;;2.63;;
51499;SDS011;39101;53.478;6.158;2022-08-21T14:43:48;9.45;;;2.17;;
51499;SDS011;39101;53.478;6.158;2022-08-21T14:46:23;9.35;;;3.13;;
51499;SDS011;39101;53.478;6.158;2022-08-21T14:48:52;9.30;;;2.42;;
51499;SDS011;39101;53.478;6.158;2022-08-21T14:51:19;9.40;;;2.65;;
51499;SDS011;39101;53.478;6.158;2022-08-21T14:53:46;8.57;;;3.30;;
51499;SDS011;39101;53.478;6.158;2022-08-21T14:56:14;6.28;;;1.80;;
51499;SDS011;39101;53.478;6.158;2022-08-21T14:58:46;13.00;;;3.08;;
51499;SDS011;39101;53.478;6.158;2022-08-21T15:01:14;12.45;;;2.67;;
51499;SDS011;39101;53.478;6.158;2022-08-21T15:03:43;12.07;;;2.92;;
51499;SDS011;39101;53.478;6.158;2022-08-21T15:06:11;12.05;;;2.90;;
51499;SDS011;39101;53.478;6.158;2022-08-21T15:08:38;9.85;;;2.25;;
51499;SDS011;39101;53.478;6.158;2022-08-21T15:11:04;6.45;;;2.13;;
51499;SDS011;39101;53.478;6.158;2022-08-21T15:13:31;11.93;;;2.47;;
51499;SDS011;39101;53.478;6.158;2022-08-21T15:15:57;7.07;;;1.70;;
51499;SDS011;39101;53.478;6.158;2022-08-21T15:18:24;10.63;;;2.63;;
51499;SDS011;39101;53.478;6.158;2022-08-21T15:20:53;10.57;;;2.63;;
51499;SDS011;39101;53.478;6.158;2022-08-21T15:23:19;10.15;;;2.30;;
51499;SDS011;39101;53.478;6.158;2022-08-21T15:25:46;8.73;;;2.35;;
51499;SDS011;39101;53.478;6.158;2022-08-21T15:28:13;8.45;;;2.72;;
51499;SDS011;39101;53.478;6.158;2022-08-21T15:30:42;9.67;;;2.60;;
51499;SDS011;39101;53.478;6.158;2022-08-21T15:33:09;8.07;;;2.20;;
51499;SDS011;39101;53.478;6.158;2022-08-21T15:35:36;8.90;;;2.28;;
51499;SDS011;39101;53.478;6.158;2022-08-21T15:38:06;11.43;;;3.80;;
51499;SDS011;39101;53.478;6.158;2022-08-21T15:40:33;9.77;;;2.35;;
51499;SDS011;39101;53.478;6.158;2022-08-21T15:43:01;8.20;;;2.85;;
51499;SDS011;39101;53.478;6.158;2022-08-21T15:45:28;9.50;;;2.30;;
51499;SDS011;39101;53.478;6.158;2022-08-21T15:47:54;7.90;;;2.15;;
51499;SDS011;39101;53.478;6.158;2022-08-21T15:50:21;11.00;;;2.70;;
51499;SDS011;39101;53.478;6.158;2022-08-21T15:52:49;7.93;;;2.50;;
51499;SDS011;39101;53.478;6.158;2022-08-21T15:55:15;6.35;;;2.10;;
51499;SDS011;39101;53.478;6.158;2022-08-21T15:57:46;7.43;;;2.60;;
51499;SDS011;39101;53.478;6.158;2022-08-21T16:00:20;8.23;;;2.35;;
51499;SDS011;39101;53.478;6.158;2022-08-21T16:03:03;5.93;;;2.30;;
51499;SDS011;39101;53.478;6.158;2022-08-21T16:05:31;8.73;;;2.40;;
51499;SDS011;39101;53.478;6.158;2022-08-21T16:07:57;8.25;;;2.65;;
51499;SDS011;39101;53.478;6.158;2022-08-21T16:10:23;8.60;;;2.65;;
51499;SDS011;39101;53.478;6.158;2022-08-21T16:12:52;10.73;;;2.47;;
51499;SDS011;39101;53.478;6.158;2022-08-21T16:15:22;9.57;;;3.10;;
51499;SDS011;39101;53.478;6.158;2022-08-21T16:17:48;8.38;;;2.97;;
51499;SDS011;39101;53.478;6.158;2022-08-21T16:20:21;6.47;;;2.45;;
51499;SDS011;39101;53.478;6.158;2022-08-21T16:22:49;7.95;;;2.50;;